createdAt,value
2017-07-12T00:01:35.195Z,18.30
2017-07-12T00:04:01.388Z,18.20
2017-07-12T00:06:27.581Z,18.30
2017-07-12T00:08:53.756Z,18.30
2017-07-12T00:11:19.953Z,18.30
2017-07-12T00:13:46.152Z,18.30
2017-07-12T00:16:12.350Z,18.30
2017-07-12T00:18:38.571Z,18.30
2017-07-12T00:21:04.729Z,18.20
2017-07-12T00:23:30.911Z,18.10
2017-07-12T00:25:57.097Z,18.00
2017-07-12T00:28:23.312Z,18.00
2017-07-12T00:30:49.580Z,18.10
2017-07-12T00:33:15.789Z,18.10
2017-07-12T00:35:42.011Z,17.90
2017-07-12T00:38:08.224Z,17.70
2017-07-12T00:40:34.420Z,17.60
2017-07-12T00:43:00.647Z,17.60
2017-07-12T00:45:26.818Z,17.60
2017-07-12T00:47:53.016Z,17.80
2017-07-12T00:50:19.232Z,17.80
2017-07-12T00:52:45.421Z,17.70
2017-07-12T00:55:11.618Z,17.80
2017-07-12T00:57:37.816Z,17.80
2017-07-12T01:00:04.053Z,17.90
2017-07-12T01:02:30.230Z,17.90
2017-07-12T01:04:56.460Z,17.90
2017-07-12T01:07:22.636Z,17.90
2017-07-12T01:09:48.839Z,17.80
2017-07-12T01:12:15.034Z,17.80
2017-07-12T01:14:41.243Z,17.80
2017-07-12T01:17:07.441Z,17.80
2017-07-12T01:19:33.624Z,17.80
2017-07-12T01:21:59.796Z,17.80
2017-07-12T01:24:25.984Z,17.60
2017-07-12T01:26:52.188Z,17.50
2017-07-12T01:29:18.397Z,17.60
2017-07-12T01:31:44.608Z,17.50
2017-07-12T01:34:10.797Z,17.40
2017-07-12T01:36:36.985Z,17.60
2017-07-12T01:39:03.155Z,17.50
2017-07-12T01:41:29.330Z,17.50
2017-07-12T01:43:55.529Z,17.50
2017-07-12T01:46:21.767Z,17.40
2017-07-12T01:48:47.924Z,17.30
2017-07-12T01:51:14.125Z,17.30
2017-07-12T01:53:40.302Z,17.40
2017-07-12T01:56:06.480Z,17.40
2017-07-12T01:58:32.647Z,17.50
2017-07-12T02:00:58.833Z,17.50
2017-07-12T02:03:25.008Z,17.50
2017-07-12T02:05:51.182Z,17.50
2017-07-12T02:08:17.393Z,17.50
2017-07-12T02:10:43.546Z,17.60
2017-07-12T02:13:09.780Z,17.70
2017-07-12T02:15:36.068Z,17.80
2017-07-12T02:18:02.303Z,17.80
2017-07-12T02:20:28.450Z,17.70
2017-07-12T02:22:54.673Z,17.80
2017-07-12T02:25:20.833Z,17.80
2017-07-12T02:27:47.009Z,17.80
2017-07-12T02:30:13.190Z,17.80
2017-07-12T02:32:39.391Z,17.80
2017-07-12T02:35:05.561Z,17.80
2017-07-12T02:37:31.761Z,17.90
2017-07-12T02:39:57.971Z,17.90
2017-07-12T02:42:24.147Z,17.90
2017-07-12T02:44:50.351Z,17.90
2017-07-12T02:47:16.529Z,17.90
2017-07-12T02:49:42.744Z,17.80
2017-07-12T02:52:08.896Z,17.90
2017-07-12T02:54:35.072Z,17.90
2017-07-12T02:57:01.266Z,17.90
2017-07-12T02:59:27.460Z,18.00
2017-07-12T03:01:53.628Z,17.90
2017-07-12T03:04:19.796Z,17.90
2017-07-12T03:06:45.968Z,17.90
2017-07-12T03:09:12.196Z,17.90
2017-07-12T03:11:38.364Z,17.90
2017-07-12T03:14:04.539Z,17.90
2017-07-12T03:16:30.785Z,18.00
2017-07-12T03:18:56.974Z,17.90
2017-07-12T03:21:33.169Z,18.00
2017-07-12T03:23:59.335Z,18.00
2017-07-12T03:26:25.559Z,18.10
2017-07-12T03:28:51.730Z,18.10
2017-07-12T03:31:17.928Z,17.80
2017-07-12T03:33:44.085Z,17.70
2017-07-12T03:36:10.308Z,17.50
2017-07-12T03:38:36.452Z,17.60
2017-07-12T03:41:02.638Z,17.80
2017-07-12T03:43:28.816Z,18.00
2017-07-12T03:45:55.013Z,18.00
2017-07-12T03:48:21.177Z,18.10
2017-07-12T03:50:47.363Z,18.10
2017-07-12T03:53:13.576Z,18.10
2017-07-12T03:55:39.735Z,18.00
2017-07-12T03:58:05.946Z,18.00
2017-07-12T04:00:32.102Z,18.00
2017-07-12T04:02:58.297Z,17.90
2017-07-12T04:05:24.456Z,17.80
2017-07-12T04:07:50.643Z,17.90
2017-07-12T04:10:16.882Z,17.90
2017-07-12T04:12:43.082Z,17.90
2017-07-12T04:15:09.249Z,17.90
2017-07-12T04:17:35.420Z,17.90
2017-07-12T04:20:01.579Z,18.00
2017-07-12T04:22:27.746Z,17.90
2017-07-12T04:24:53.933Z,17.90
2017-07-12T04:27:20.136Z,17.90
2017-07-12T04:29:46.342Z,17.90
2017-07-12T04:32:12.517Z,17.80
2017-07-12T04:34:38.717Z,17.70
2017-07-12T04:37:04.903Z,17.80
2017-07-12T04:39:31.105Z,17.80
2017-07-12T04:41:57.271Z,17.80
2017-07-12T04:44:23.439Z,17.80
2017-07-12T04:46:49.615Z,17.80
2017-07-12T04:49:15.810Z,17.80
2017-07-12T04:51:41.973Z,17.90
2017-07-12T04:54:08.204Z,17.90
2017-07-12T04:56:34.366Z,17.80
2017-07-12T04:59:00.573Z,17.60
2017-07-12T05:01:26.762Z,17.70
2017-07-12T05:03:52.949Z,17.80
2017-07-12T05:06:19.118Z,17.80
2017-07-12T05:08:45.319Z,17.80
2017-07-12T05:11:11.496Z,17.80
2017-07-12T05:13:37.728Z,17.80
2017-07-12T05:16:03.997Z,17.90
2017-07-12T05:18:30.241Z,17.80
2017-07-12T05:20:56.444Z,17.90
2017-07-12T05:23:22.608Z,17.80
2017-07-12T05:25:48.855Z,17.90
2017-07-12T05:28:15.061Z,17.90
2017-07-12T05:30:41.312Z,18.00
2017-07-12T05:33:07.503Z,18.00
2017-07-12T05:35:33.716Z,18.00
2017-07-12T05:38:00.203Z,18.10
2017-07-12T05:40:26.356Z,18.10
2017-07-12T05:42:52.504Z,18.20
2017-07-12T05:45:18.730Z,18.20
2017-07-12T05:47:44.898Z,18.30
2017-07-12T05:50:11.096Z,18.30
2017-07-12T05:52:37.270Z,18.40
2017-07-12T05:55:03.443Z,18.40
2017-07-12T05:57:29.620Z,18.50
2017-07-12T05:59:55.798Z,18.50
2017-07-12T06:02:21.995Z,18.60
2017-07-12T06:04:48.147Z,18.60
2017-07-12T06:07:14.342Z,18.70
2017-07-12T06:09:40.532Z,18.80
2017-07-12T06:12:06.708Z,18.80
2017-07-12T06:14:32.877Z,18.90
2017-07-12T06:16:59.120Z,18.90
2017-07-12T06:19:25.276Z,19.00
2017-07-12T06:21:51.445Z,19.00
2017-07-12T06:24:17.584Z,19.10
2017-07-12T06:26:43.789Z,19.10
2017-07-12T06:29:10.005Z,19.00
2017-07-12T06:31:36.138Z,19.10
2017-07-12T06:34:02.347Z,19.20
2017-07-12T06:36:28.514Z,19.20
2017-07-12T06:38:54.665Z,19.20
2017-07-12T06:41:20.838Z,19.30
2017-07-12T06:43:47.033Z,19.20
2017-07-12T06:46:13.189Z,19.30
2017-07-12T06:48:39.347Z,19.30
2017-07-12T06:51:05.601Z,19.30
2017-07-12T06:53:31.811Z,19.30
2017-07-12T06:55:58.002Z,19.30
2017-07-12T06:58:24.224Z,19.30
2017-07-12T07:00:50.449Z,19.30
2017-07-12T07:03:16.634Z,19.20
2017-07-12T07:05:42.841Z,19.20
2017-07-12T07:08:08.987Z,19.20
2017-07-12T07:10:35.184Z,19.20
2017-07-12T07:13:01.356Z,19.10
2017-07-12T07:15:27.523Z,19.10
2017-07-12T07:17:53.679Z,19.00
2017-07-12T07:20:19.892Z,19.00
2017-07-12T07:22:46.027Z,19.00
2017-07-12T07:25:12.153Z,19.00
2017-07-12T07:27:38.399Z,19.00
2017-07-12T07:30:04.559Z,19.00
2017-07-12T07:32:30.745Z,19.00
2017-07-12T07:34:56.899Z,18.90
2017-07-12T07:37:23.113Z,18.80
2017-07-12T07:39:49.294Z,18.80
2017-07-12T07:42:15.508Z,18.80
2017-07-12T07:44:41.664Z,18.90
2017-07-12T07:47:07.829Z,19.00
2017-07-12T07:49:33.977Z,18.90
2017-07-12T07:52:00.246Z,18.90
2017-07-12T07:54:26.403Z,18.80
2017-07-12T07:56:52.567Z,18.80
2017-07-12T07:59:18.754Z,18.80
2017-07-12T08:01:44.935Z,18.70
2017-07-12T08:04:11.104Z,18.60
2017-07-12T08:06:37.252Z,18.60
2017-07-12T08:09:03.470Z,18.50
2017-07-12T08:11:29.621Z,18.50
2017-07-12T08:13:55.792Z,18.40
2017-07-12T08:16:21.977Z,18.30
2017-07-12T08:18:48.154Z,18.20
2017-07-12T08:21:14.300Z,18.10
2017-07-12T08:23:40.492Z,18.10
2017-07-12T08:26:06.644Z,18.00
2017-07-12T08:28:32.841Z,17.90
2017-07-12T08:30:59.029Z,17.80
2017-07-12T08:33:25.220Z,17.80
2017-07-12T08:35:51.447Z,17.80
2017-07-12T08:38:17.595Z,17.80
2017-07-12T08:40:43.782Z,17.80
2017-07-12T08:43:09.934Z,17.80
2017-07-12T08:45:36.452Z,17.90
2017-07-12T08:48:02.603Z,17.90
2017-07-12T08:50:28.833Z,18.00
2017-07-12T08:52:54.999Z,17.90
2017-07-12T08:55:21.168Z,17.90
2017-07-12T08:57:47.320Z,17.90
2017-07-12T09:00:13.487Z,18.00
2017-07-12T09:02:39.651Z,18.00
2017-07-12T09:05:05.847Z,18.00
2017-07-12T09:07:32.029Z,18.00
2017-07-12T09:09:58.207Z,18.00
2017-07-12T09:12:24.429Z,18.00
2017-07-12T09:14:50.599Z,18.10
2017-07-12T09:17:16.800Z,18.00
2017-07-12T09:19:42.976Z,18.00
2017-07-12T09:22:09.134Z,18.00
2017-07-12T09:34:19.705Z,18.10
2017-07-12T09:36:45.874Z,18.00
2017-07-12T09:39:12.045Z,18.00
2017-07-12T09:41:38.223Z,18.00
2017-07-12T09:44:04.413Z,17.90
2017-07-12T09:46:30.563Z,18.00
2017-07-12T09:48:56.732Z,18.00
2017-07-12T09:51:22.920Z,18.10
2017-07-12T09:53:49.120Z,18.20
2017-07-12T09:56:15.273Z,18.20
2017-07-12T09:58:41.452Z,18.30
2017-07-12T10:01:07.655Z,18.30
2017-07-12T10:03:33.831Z,18.30
2017-07-12T10:05:59.997Z,18.30
2017-07-12T10:08:26.151Z,18.30
2017-07-12T10:10:52.379Z,18.30
2017-07-12T10:13:18.558Z,18.30
2017-07-12T10:15:44.765Z,18.30
2017-07-12T10:18:10.928Z,18.20
2017-07-12T10:20:37.141Z,18.10
2017-07-12T10:23:03.321Z,18.00
2017-07-12T10:25:29.493Z,18.10
2017-07-12T10:27:55.929Z,18.10
2017-07-12T10:30:22.140Z,18.10
2017-07-12T10:32:48.319Z,18.20
2017-07-12T10:35:14.527Z,18.30
2017-07-12T10:37:40.735Z,18.40
2017-07-12T10:40:06.909Z,18.40
2017-07-12T10:42:33.083Z,18.50
2017-07-12T10:44:59.260Z,18.50
2017-07-12T10:47:25.432Z,18.60
2017-07-12T10:49:51.580Z,18.60
2017-07-12T10:52:17.809Z,18.50
2017-07-12T10:54:43.997Z,18.50
2017-07-12T10:57:10.199Z,18.50
2017-07-12T10:59:36.385Z,18.60
2017-07-12T11:02:02.591Z,18.70
2017-07-12T11:04:28.817Z,18.80
2017-07-12T11:06:55.004Z,19.00
2017-07-12T11:09:21.171Z,19.10
2017-07-12T11:11:47.355Z,19.10
2017-07-12T11:14:13.577Z,19.10
2017-07-12T11:16:39.815Z,19.10
2017-07-12T11:19:05.991Z,19.10
2017-07-12T11:21:32.132Z,19.00
2017-07-12T11:23:58.284Z,19.10
2017-07-12T11:26:24.420Z,19.10
2017-07-12T11:28:50.619Z,19.00
2017-07-12T11:31:16.779Z,19.00
2017-07-12T11:33:42.979Z,19.00
2017-07-12T11:36:09.148Z,19.10
2017-07-12T11:38:35.336Z,19.00
2017-07-12T11:41:01.522Z,19.00
2017-07-12T11:43:27.691Z,18.90
2017-07-12T11:45:53.861Z,18.60
2017-07-12T11:48:20.064Z,18.40
2017-07-12T11:50:46.389Z,18.30
2017-07-12T11:53:12.564Z,18.30
2017-07-12T11:55:38.791Z,18.30
2017-07-12T11:58:04.988Z,18.30
2017-07-12T12:00:31.150Z,18.30
2017-07-12T12:02:57.321Z,18.40
2017-07-12T12:05:23.497Z,18.50
2017-07-12T12:07:49.663Z,18.50
2017-07-12T12:10:15.864Z,18.50
2017-07-12T12:12:42.043Z,18.60
2017-07-12T12:15:08.230Z,18.60
2017-07-12T12:17:34.384Z,18.60
2017-07-12T12:20:00.567Z,18.60
2017-07-12T12:22:26.754Z,18.60
2017-07-12T12:24:52.944Z,18.70
2017-07-12T12:27:19.110Z,18.70
2017-07-12T12:29:45.304Z,18.70
2017-07-12T12:32:11.454Z,18.70
2017-07-12T12:34:37.628Z,18.70
2017-07-12T12:37:03.864Z,18.70
2017-07-12T12:39:30.081Z,18.90
2017-07-12T12:41:56.242Z,19.00
2017-07-12T12:44:22.384Z,19.10
2017-07-12T12:46:48.645Z,19.10
2017-07-12T12:49:14.871Z,19.40
2017-07-12T12:51:41.078Z,19.50
2017-07-12T12:54:07.279Z,19.60
2017-07-12T12:56:33.482Z,19.60
2017-07-12T12:58:59.698Z,19.60
2017-07-12T13:01:25.876Z,19.60
2017-07-12T13:03:52.040Z,19.70
2017-07-12T13:06:18.250Z,19.70
2017-07-12T13:08:44.397Z,19.80
2017-07-12T13:11:10.529Z,19.70
2017-07-12T13:13:36.712Z,19.80
2017-07-12T13:16:02.864Z,19.80
2017-07-12T13:18:29.051Z,19.80
2017-07-12T13:20:55.225Z,19.90
2017-07-12T13:23:21.404Z,20.20
2017-07-12T13:25:47.556Z,20.20
2017-07-12T13:28:13.750Z,20.40
2017-07-12T13:30:39.918Z,20.60
2017-07-12T13:33:06.121Z,20.50
2017-07-12T13:35:32.284Z,20.60
2017-07-12T13:37:58.503Z,20.90
2017-07-12T13:40:25.688Z,21.60
2017-07-12T13:42:51.898Z,21.60
2017-07-12T13:45:19.067Z,21.40
2017-07-12T13:47:45.266Z,21.40
2017-07-12T13:50:11.450Z,21.50
2017-07-12T13:52:37.634Z,21.50
2017-07-12T13:55:03.816Z,21.40
2017-07-12T13:57:29.989Z,21.30
2017-07-12T13:59:56.191Z,21.20
2017-07-12T14:02:22.361Z,21.10
2017-07-12T14:04:49.553Z,20.90
2017-07-12T14:07:15.716Z,20.90
2017-07-12T14:09:41.891Z,20.90
2017-07-12T14:12:08.140Z,20.90
2017-07-12T14:14:36.305Z,20.80
2017-07-12T14:17:02.509Z,20.80
2017-07-12T14:19:28.732Z,20.80
2017-07-12T14:21:54.948Z,20.80
2017-07-12T14:24:22.099Z,20.80
2017-07-12T14:26:48.284Z,20.80
2017-07-12T14:29:14.484Z,20.90
2017-07-12T14:31:40.672Z,20.90
2017-07-12T14:34:06.891Z,21.00
2017-07-12T14:36:33.119Z,21.10
2017-07-12T14:38:59.285Z,21.10
2017-07-12T14:41:25.451Z,21.10
2017-07-12T14:43:51.623Z,21.10
2017-07-12T14:46:17.836Z,21.00
2017-07-12T14:48:44.058Z,20.90
2017-07-12T14:51:10.220Z,20.90
2017-07-12T14:53:36.430Z,20.90
2017-07-12T14:56:02.604Z,21.00
2017-07-12T14:58:28.769Z,21.10
2017-07-12T15:00:54.900Z,21.10
2017-07-12T15:03:21.135Z,21.20
2017-07-12T15:05:48.277Z,21.20
2017-07-12T15:08:14.463Z,21.30
2017-07-12T15:10:40.606Z,21.40
2017-07-12T15:13:06.871Z,21.40
2017-07-12T15:15:34.063Z,21.40
2017-07-12T15:18:00.219Z,21.30
2017-07-12T15:20:26.390Z,21.30
2017-07-12T15:22:52.593Z,21.10
2017-07-12T15:25:18.785Z,20.80
2017-07-12T15:27:44.941Z,19.10
2017-07-12T15:30:11.103Z,17.80
2017-07-12T15:32:37.349Z,17.30
2017-07-12T15:35:03.531Z,17.10
2017-07-12T15:37:29.744Z,17.10
2017-07-12T15:39:55.937Z,16.80
2017-07-12T15:42:22.134Z,16.90
2017-07-12T15:44:48.418Z,16.60
2017-07-12T15:47:14.632Z,16.70
2017-07-12T15:49:40.919Z,16.60
2017-07-12T15:52:08.189Z,16.60
2017-07-12T15:54:34.399Z,16.70
2017-07-12T15:57:00.923Z,16.80
2017-07-12T15:59:28.244Z,16.80
2017-07-12T16:01:54.456Z,16.80
2017-07-12T16:04:21.648Z,16.90
2017-07-12T16:06:47.837Z,16.70
2017-07-12T16:09:14.017Z,16.80
2017-07-12T16:11:40.307Z,16.80
2017-07-12T16:14:07.666Z,16.70
2017-07-12T16:16:33.860Z,16.50
2017-07-12T16:19:00.012Z,16.50
2017-07-12T16:21:26.237Z,16.50
2017-07-12T16:23:52.534Z,16.40
2017-07-12T16:26:18.709Z,16.40
2017-07-12T16:28:44.913Z,16.40
2017-07-12T16:31:11.086Z,16.40
2017-07-12T16:33:37.265Z,16.40
2017-07-12T16:36:04.432Z,16.30
2017-07-12T16:38:30.648Z,16.40
2017-07-12T16:40:56.820Z,16.40
2017-07-12T16:43:22.984Z,16.40
2017-07-12T16:45:49.171Z,16.40
2017-07-12T16:48:15.466Z,16.50
2017-07-12T16:50:41.652Z,16.60
2017-07-12T16:53:07.848Z,16.60
2017-07-12T16:55:34.029Z,16.60
2017-07-12T16:58:00.530Z,16.70
2017-07-12T17:00:26.758Z,16.80
2017-07-12T17:02:53.929Z,16.80
2017-07-12T17:05:20.204Z,16.90
2017-07-12T17:07:46.356Z,16.90
2017-07-12T17:10:12.537Z,17.00
2017-07-12T17:12:38.716Z,17.10
2017-07-12T17:15:04.933Z,17.10
2017-07-12T17:17:31.104Z,17.10
2017-07-12T17:19:57.315Z,17.20
2017-07-12T17:22:23.487Z,17.20
2017-07-12T17:24:49.738Z,17.20
2017-07-12T17:27:15.906Z,17.20
2017-07-12T17:29:42.096Z,17.20
2017-07-12T17:32:08.340Z,17.20
2017-07-12T17:34:34.499Z,17.20
2017-07-12T17:37:00.737Z,17.20
2017-07-12T17:39:26.973Z,17.30
2017-07-12T17:41:56.640Z,17.40
2017-07-12T17:44:22.798Z,17.30
2017-07-12T17:46:49.023Z,17.30
2017-07-12T17:49:15.173Z,17.40
2017-07-12T17:51:41.420Z,17.40
2017-07-12T17:54:07.593Z,17.30
2017-07-12T17:56:33.777Z,17.30
2017-07-12T17:58:59.931Z,17.40
2017-07-12T18:01:26.100Z,17.40
2017-07-12T18:03:52.267Z,17.30
2017-07-12T18:06:18.528Z,17.30
2017-07-12T18:08:44.748Z,17.30
2017-07-12T18:11:10.943Z,17.30
2017-07-12T18:13:37.132Z,17.30
2017-07-12T18:16:03.328Z,17.30
2017-07-12T18:18:29.631Z,17.30
2017-07-12T18:20:55.792Z,17.30
2017-07-12T18:23:21.995Z,17.20
2017-07-12T18:25:48.160Z,17.20
2017-07-12T18:28:14.385Z,17.20
2017-07-12T18:30:40.550Z,17.20
2017-07-12T18:33:07.583Z,17.20
2017-07-12T18:35:33.735Z,17.20
2017-07-12T18:37:59.958Z,17.20
2017-07-12T18:40:26.155Z,17.20
2017-07-12T18:42:52.385Z,17.20
2017-07-12T18:45:18.559Z,17.20
2017-07-12T18:47:44.744Z,17.10
2017-07-12T18:50:10.902Z,17.10
2017-07-12T18:52:37.101Z,17.10
2017-07-12T18:55:03.242Z,17.10
2017-07-12T18:57:30.411Z,17.10
2017-07-12T18:59:56.563Z,17.10
2017-07-12T19:02:22.755Z,17.10
2017-07-12T19:04:48.907Z,17.10
2017-07-12T19:07:15.053Z,17.10
2017-07-12T19:09:41.248Z,17.10
2017-07-12T19:12:07.480Z,17.10
2017-07-12T19:14:33.660Z,17.10
2017-07-12T19:16:59.863Z,17.20
2017-07-12T19:19:27.061Z,17.20
2017-07-12T19:21:53.215Z,17.20
2017-07-12T19:24:19.376Z,17.20
2017-07-12T19:26:46.284Z,17.20
2017-07-12T19:29:12.459Z,17.20
2017-07-12T19:31:38.598Z,17.10
2017-07-12T19:34:04.765Z,17.10
2017-07-12T19:36:30.928Z,17.10
2017-07-12T19:38:57.092Z,17.10
2017-07-12T19:41:23.297Z,17.10
2017-07-12T19:43:49.494Z,17.00
2017-07-12T19:46:15.703Z,16.90
2017-07-12T19:48:41.874Z,16.90
2017-07-12T19:51:08.056Z,16.80
2017-07-12T19:53:34.302Z,16.70
2017-07-12T19:56:00.483Z,16.70
2017-07-12T19:58:26.664Z,16.60
2017-07-12T20:00:52.860Z,16.50
2017-07-12T20:03:19.010Z,16.50
2017-07-12T20:05:45.193Z,16.40
2017-07-12T20:08:11.331Z,16.50
2017-07-12T20:10:37.485Z,16.40
2017-07-12T20:13:03.660Z,16.30
2017-07-12T20:15:29.811Z,16.30
2017-07-12T20:17:56.041Z,16.20
2017-07-12T20:20:22.197Z,16.20
2017-07-12T20:22:48.363Z,16.20
2017-07-12T20:25:14.569Z,16.20
2017-07-12T20:27:40.691Z,16.20
2017-07-12T20:30:06.888Z,16.20
2017-07-12T20:32:33.063Z,16.20
2017-07-12T20:34:59.199Z,16.10
2017-07-12T20:37:25.375Z,16.00
2017-07-12T20:39:51.512Z,16.00
2017-07-12T20:42:17.688Z,16.00
2017-07-12T20:44:43.829Z,15.90
2017-07-12T20:47:09.973Z,15.50
2017-07-12T20:49:36.116Z,15.50
2017-07-12T20:52:03.286Z,15.30
2017-07-12T20:54:29.452Z,15.30
2017-07-12T20:56:55.591Z,15.40
2017-07-12T20:59:21.751Z,15.60
2017-07-12T21:01:47.911Z,15.60
2017-07-12T21:04:14.116Z,15.70
2017-07-12T21:06:40.300Z,15.70
2017-07-12T21:09:06.525Z,15.60
2017-07-12T21:11:33.598Z,15.50
2017-07-12T21:13:59.794Z,15.40
2017-07-12T21:16:25.988Z,15.40
2017-07-12T21:18:52.219Z,15.40
2017-07-12T21:21:18.531Z,15.30
2017-07-12T21:23:44.808Z,15.30
2017-07-12T21:26:11.032Z,15.30
2017-07-12T21:28:37.216Z,15.30
2017-07-12T21:31:03.423Z,15.30
2017-07-12T21:33:29.593Z,15.20
2017-07-12T21:35:55.835Z,15.30
2017-07-12T21:38:22.064Z,15.20
2017-07-12T21:40:48.249Z,15.10
2017-07-12T21:43:14.464Z,15.10
2017-07-12T21:45:40.779Z,15.20
2017-07-12T21:48:06.975Z,15.10
2017-07-12T21:50:33.219Z,15.00
2017-07-12T21:52:59.415Z,14.90
2017-07-12T21:55:43.838Z,14.80
2017-07-12T21:58:28.455Z,14.60
2017-07-12T22:01:12.999Z,14.50
2017-07-12T22:03:57.656Z,14.50
2017-07-12T22:06:42.179Z,14.40
2017-07-12T22:09:26.736Z,14.50
2017-07-12T22:12:11.292Z,14.30
2017-07-12T22:14:55.869Z,14.10
2017-07-12T22:17:40.452Z,14.10
2017-07-12T22:20:24.973Z,14.10
2017-07-12T22:23:09.499Z,14.10
2017-07-12T22:25:54.040Z,14.20
2017-07-12T22:28:38.600Z,14.30
2017-07-12T22:31:23.278Z,14.30
2017-07-12T22:34:07.667Z,14.30
2017-07-12T22:36:52.293Z,14.30
2017-07-12T22:39:24.579Z,14.30
2017-07-12T22:41:56.881Z,14.20
2017-07-12T22:44:23.017Z,14.20
2017-07-12T22:46:49.365Z,14.30
2017-07-12T22:49:16.666Z,14.30
2017-07-12T22:51:43.005Z,14.30
2017-07-12T22:54:09.368Z,14.30
2017-07-12T22:56:35.692Z,14.20
2017-07-12T22:59:01.991Z,14.00
2017-07-12T23:01:28.210Z,13.80
2017-07-12T23:03:56.831Z,13.70
2017-07-12T23:06:23.122Z,13.50
2017-07-12T23:08:49.376Z,13.40
2017-07-12T23:11:15.561Z,13.50
2017-07-12T23:13:41.857Z,13.70
2017-07-12T23:16:08.081Z,13.60
2017-07-12T23:18:34.288Z,13.50
2017-07-12T23:21:00.461Z,13.50
2017-07-12T23:23:26.687Z,13.30
2017-07-12T23:25:52.884Z,13.10
2017-07-12T23:28:19.221Z,13.10
2017-07-12T23:30:45.429Z,13.40
2017-07-12T23:33:11.770Z,13.50
2017-07-12T23:35:38.141Z,13.50
2017-07-12T23:38:04.350Z,13.40
2017-07-12T23:40:30.577Z,13.30
2017-07-12T23:42:56.784Z,13.20
2017-07-12T23:45:23.037Z,12.90
2017-07-12T23:47:49.256Z,12.80
2017-07-12T23:50:15.492Z,13.00
2017-07-12T23:52:41.709Z,13.10
2017-07-12T23:55:07.879Z,13.20
2017-07-12T23:57:34.059Z,13.10
